createdAt,value
2019-05-19T00:02:19.790Z,10.38
2019-05-19T00:04:46.869Z,10.34
2019-05-19T00:07:13.926Z,10.30
2019-05-19T00:09:40.990Z,10.26
2019-05-19T00:12:08.095Z,10.19
2019-05-19T00:14:35.140Z,10.22
2019-05-19T00:17:02.240Z,10.18
2019-05-19T00:19:29.308Z,10.14
2019-05-19T00:21:56.392Z,10.07
2019-05-19T00:24:23.501Z,9.98
2019-05-19T00:26:50.580Z,9.93
2019-05-19T00:29:17.651Z,9.91
2019-05-19T00:31:44.729Z,9.87
2019-05-19T00:34:11.809Z,9.87
2019-05-19T00:36:38.891Z,9.86
2019-05-19T00:39:05.958Z,9.82
2019-05-19T00:41:35.571Z,9.81
2019-05-19T00:44:02.638Z,9.77
2019-05-19T00:46:29.804Z,9.74
2019-05-19T00:48:56.893Z,9.76
2019-05-19T00:51:23.979Z,9.79
2019-05-19T00:53:51.021Z,9.72
2019-05-19T00:56:18.455Z,9.63
2019-05-19T00:58:46.034Z,9.59
2019-05-19T01:01:14.141Z,9.54
2019-05-19T01:03:41.198Z,9.52
2019-05-19T01:06:08.293Z,9.48
2019-05-19T01:08:35.371Z,9.44
2019-05-19T01:11:02.511Z,9.38
2019-05-19T01:13:29.620Z,9.33
2019-05-19T01:15:56.691Z,9.31
2019-05-19T01:18:25.591Z,9.30
2019-05-19T01:20:52.656Z,9.29
2019-05-19T01:23:19.773Z,9.25
2019-05-19T01:25:46.829Z,9.22
2019-05-19T01:28:13.937Z,9.20
2019-05-19T01:30:41.003Z,9.19
2019-05-19T01:33:08.080Z,9.16
2019-05-19T01:35:35.176Z,9.12
2019-05-19T01:38:02.298Z,9.09
2019-05-19T01:40:29.369Z,9.05
2019-05-19T01:42:56.496Z,9.08
2019-05-19T01:45:24.683Z,9.09
2019-05-19T01:47:51.788Z,9.06
2019-05-19T01:50:18.988Z,9.01
2019-05-19T01:52:46.068Z,9.01
2019-05-19T01:55:13.760Z,9.03
2019-05-19T01:57:40.870Z,9.06
2019-05-19T02:00:08.447Z,9.06
2019-05-19T02:02:35.513Z,9.08
2019-05-19T02:05:02.627Z,9.06
2019-05-19T02:07:29.801Z,9.03
2019-05-19T02:09:56.915Z,9.04
2019-05-19T02:12:24.017Z,9.02
2019-05-19T02:14:51.102Z,8.96
2019-05-19T02:17:18.178Z,8.94
2019-05-19T02:19:45.234Z,8.88
2019-05-19T02:22:12.338Z,8.86
2019-05-19T02:24:39.404Z,8.82
2019-05-19T02:27:06.454Z,8.80
2019-05-19T02:29:33.636Z,8.73
2019-05-19T02:32:00.715Z,8.62
2019-05-19T02:34:27.820Z,8.56
2019-05-19T02:36:54.880Z,8.53
2019-05-19T02:39:21.955Z,8.53
2019-05-19T02:41:49.462Z,8.57
2019-05-19T02:44:16.777Z,8.58
2019-05-19T02:46:44.969Z,8.57
2019-05-19T02:49:12.291Z,8.53
2019-05-19T02:51:40.378Z,8.52
2019-05-19T02:54:07.733Z,8.47
2019-05-19T02:56:35.124Z,8.44
2019-05-19T02:59:02.470Z,8.41
2019-05-19T03:01:29.563Z,8.41
2019-05-19T03:03:56.627Z,8.40
2019-05-19T03:06:24.020Z,8.41
2019-05-19T03:08:51.064Z,8.42
2019-05-19T03:11:18.143Z,8.42
2019-05-19T03:13:45.234Z,8.41
2019-05-19T03:16:12.320Z,8.29
2019-05-19T03:18:39.412Z,8.22
2019-05-19T03:21:11.088Z,8.21
2019-05-19T03:23:45.261Z,8.18
2019-05-19T03:26:12.323Z,8.18
2019-05-19T03:28:39.419Z,8.16
2019-05-19T03:34:10.241Z,8.17
2019-05-19T03:36:37.293Z,8.19
2019-05-19T03:39:05.658Z,8.14
2019-05-19T03:41:32.742Z,8.14
2019-05-19T03:43:59.848Z,8.17
2019-05-19T03:46:26.925Z,8.20
2019-05-19T03:48:53.963Z,8.20
2019-05-19T03:51:30.870Z,8.22
2019-05-19T03:53:59.669Z,8.22
2019-05-19T03:56:26.761Z,8.22
2019-05-19T03:58:53.820Z,8.19
2019-05-19T04:01:21.452Z,8.09
2019-05-19T04:03:48.515Z,7.97
2019-05-19T04:06:15.576Z,7.89
2019-05-19T04:08:42.705Z,7.89
2019-05-19T04:11:09.794Z,7.95
2019-05-19T04:13:36.859Z,8.03
2019-05-19T04:16:03.934Z,8.09
2019-05-19T04:18:31.032Z,8.08
2019-05-19T04:20:58.069Z,8.12
2019-05-19T04:23:25.174Z,8.18
2019-05-19T04:25:52.219Z,8.28
2019-05-19T04:28:19.308Z,8.38
2019-05-19T04:30:46.363Z,8.46
2019-05-19T04:33:13.449Z,8.54
2019-05-19T04:35:40.548Z,8.62
2019-05-19T04:38:07.624Z,8.71
2019-05-19T04:40:34.710Z,8.81
2019-05-19T04:43:01.793Z,8.95
2019-05-19T04:45:28.854Z,9.02
2019-05-19T04:47:55.927Z,9.09
2019-05-19T04:50:23.018Z,9.16
2019-05-19T04:52:50.106Z,9.25
2019-05-19T04:55:17.131Z,9.30
2019-05-19T04:57:44.161Z,9.38
2019-05-19T05:00:11.351Z,9.51
2019-05-19T05:02:38.459Z,9.65
2019-05-19T05:05:05.922Z,9.82
2019-05-19T05:07:33.028Z,9.99
2019-05-19T05:10:00.109Z,10.31
2019-05-19T05:12:27.202Z,10.86
2019-05-19T05:14:54.291Z,11.24
2019-05-19T05:17:21.383Z,11.58
2019-05-19T05:19:48.487Z,11.85
2019-05-19T05:22:22.054Z,12.03
2019-05-19T05:24:44.533Z,12.37
2019-05-19T05:27:11.621Z,12.52
2019-05-19T05:29:38.663Z,12.56
2019-05-19T05:32:05.712Z,12.79
2019-05-19T05:34:32.817Z,12.89
2019-05-19T05:36:59.883Z,12.99
2019-05-19T05:39:26.971Z,12.96
2019-05-19T05:41:54.027Z,12.94
2019-05-19T05:44:21.124Z,12.91
2019-05-19T05:46:48.197Z,12.92
2019-05-19T05:49:15.289Z,12.92
2019-05-19T05:51:42.339Z,12.94
2019-05-19T05:54:09.452Z,13.02
2019-05-19T05:56:36.499Z,13.05
2019-05-19T05:59:03.564Z,13.07
2019-05-19T06:01:30.627Z,13.12
2019-05-19T06:03:57.715Z,13.15
2019-05-19T06:06:25.092Z,13.23
2019-05-19T06:08:52.135Z,13.31
2019-05-19T06:11:19.237Z,13.36
2019-05-19T06:13:49.411Z,13.39
2019-05-19T06:16:21.297Z,13.43
2019-05-19T06:18:48.387Z,13.48
2019-05-19T06:21:15.470Z,13.49
2019-05-19T06:23:42.548Z,13.54
2019-05-19T06:26:09.653Z,13.58
2019-05-19T06:28:36.705Z,13.65
2019-05-19T06:31:03.802Z,13.75
2019-05-19T06:33:30.918Z,13.81
2019-05-19T06:35:57.988Z,13.87
2019-05-19T06:38:25.100Z,14.05
2019-05-19T06:40:52.203Z,14.05
2019-05-19T06:43:19.312Z,14.24
2019-05-19T06:45:46.400Z,14.24
2019-05-19T06:48:25.652Z,14.26
2019-05-19T06:50:52.703Z,14.26
2019-05-19T06:53:19.818Z,14.51
2019-05-19T06:55:46.901Z,14.51
2019-05-19T06:58:13.975Z,14.59
2019-05-19T07:01:00.531Z,14.58
2019-05-19T07:03:27.670Z,14.58
2019-05-19T07:05:54.716Z,14.78
2019-05-19T07:08:34.312Z,15.16
2019-05-19T07:11:01.387Z,15.16
2019-05-19T07:13:28.514Z,15.18
2019-05-19T07:15:55.590Z,15.17
2019-05-19T07:18:22.656Z,15.22
2019-05-19T07:20:49.780Z,15.28
2019-05-19T07:23:27.695Z,15.35
2019-05-19T07:25:52.382Z,15.42
2019-05-19T07:28:19.576Z,15.52
2019-05-19T07:30:46.704Z,15.60
2019-05-19T07:33:13.765Z,15.66
2019-05-19T07:35:40.858Z,15.67
2019-05-19T07:38:07.968Z,15.73
2019-05-19T07:40:35.045Z,15.79
2019-05-19T07:43:02.124Z,15.85
2019-05-19T07:45:29.209Z,15.86
2019-05-19T07:47:56.300Z,15.87
2019-05-19T07:50:23.390Z,15.89
2019-05-19T07:52:50.508Z,16.09
2019-05-19T07:55:17.516Z,16.20
2019-05-19T07:57:44.611Z,16.23
2019-05-19T08:00:11.694Z,16.32
2019-05-19T08:02:38.936Z,16.30
2019-05-19T08:05:06.167Z,16.32
2019-05-19T08:07:33.355Z,16.45
2019-05-19T08:10:00.458Z,16.57
2019-05-19T08:12:27.511Z,16.65
2019-05-19T08:14:54.579Z,16.63
2019-05-19T08:17:21.655Z,16.65
2019-05-19T08:19:48.753Z,16.70
2019-05-19T08:22:20.516Z,16.82
2019-05-19T08:24:47.597Z,16.91
2019-05-19T08:27:14.713Z,17.04
2019-05-19T08:29:41.769Z,17.04
2019-05-19T08:32:08.859Z,17.07
2019-05-19T08:34:35.913Z,17.14
2019-05-19T08:37:03.266Z,17.25
2019-05-19T08:39:30.361Z,17.37
2019-05-19T08:41:57.410Z,17.37
2019-05-19T08:44:24.511Z,17.44
2019-05-19T08:46:51.706Z,17.53
2019-05-19T08:49:18.762Z,17.67
2019-05-19T08:51:45.816Z,17.84
2019-05-19T08:54:15.949Z,17.90
2019-05-19T08:56:48.133Z,17.94
2019-05-19T08:59:15.233Z,18.01
2019-05-19T09:01:42.319Z,18.13
2019-05-19T09:04:09.391Z,18.19
2019-05-19T09:06:36.480Z,18.35
2019-05-19T09:09:04.931Z,18.38
2019-05-19T09:11:32.042Z,18.40
2019-05-19T09:13:59.182Z,18.42
2019-05-19T09:16:26.270Z,18.49
2019-05-19T09:18:55.362Z,18.52
2019-05-19T09:21:22.474Z,18.58
2019-05-19T09:23:49.532Z,18.74
2019-05-19T09:26:16.642Z,18.89
2019-05-19T09:28:43.708Z,18.97
2019-05-19T09:31:10.812Z,19.08
2019-05-19T09:33:37.886Z,19.32
2019-05-19T09:36:04.938Z,19.54
2019-05-19T09:38:32.085Z,19.62
2019-05-19T09:40:59.272Z,19.85
2019-05-19T09:43:26.359Z,20.01
2019-05-19T09:45:53.463Z,20.11
2019-05-19T09:48:20.510Z,20.31
2019-05-19T09:50:47.621Z,20.48
2019-05-19T09:53:14.668Z,20.55
2019-05-19T09:55:41.762Z,20.73
2019-05-19T09:58:10.107Z,20.93
2019-05-19T10:00:37.183Z,21.17
2019-05-19T10:03:04.339Z,21.40
2019-05-19T10:05:31.451Z,21.65
2019-05-19T10:07:58.521Z,21.99
2019-05-19T10:11:05.161Z,22.19
2019-05-19T10:13:32.251Z,22.46
2019-05-19T10:15:59.346Z,22.88
2019-05-19T10:18:26.426Z,23.25
2019-05-19T10:20:53.540Z,23.67
2019-05-19T10:23:20.624Z,23.93
2019-05-19T10:25:47.732Z,23.79
2019-05-19T10:28:14.841Z,23.88
2019-05-19T10:30:41.903Z,24.07
2019-05-19T10:33:08.982Z,24.34
2019-05-19T10:35:36.075Z,24.40
2019-05-19T10:38:04.204Z,24.45
2019-05-19T10:40:31.299Z,24.00
2019-05-19T10:42:58.411Z,23.36
2019-05-19T10:45:25.518Z,22.82
2019-05-19T10:47:52.589Z,22.76
2019-05-19T10:50:19.751Z,22.69
2019-05-19T10:52:46.822Z,22.86
2019-05-19T10:55:13.924Z,23.41
2019-05-19T10:57:41.002Z,23.96
2019-05-19T11:00:08.235Z,24.54
2019-05-19T11:02:35.351Z,24.86
2019-05-19T11:05:02.494Z,25.30
2019-05-19T11:07:29.695Z,25.11
2019-05-19T11:09:56.810Z,25.46
2019-05-19T11:12:23.930Z,25.96
2019-05-19T11:14:51.021Z,26.13
2019-05-19T11:17:18.176Z,26.27
2019-05-19T11:19:45.293Z,26.39
2019-05-19T11:22:12.410Z,26.46
2019-05-19T11:24:39.489Z,26.31
2019-05-19T11:27:06.604Z,26.07
2019-05-19T11:29:33.680Z,25.92
2019-05-19T11:32:00.796Z,26.03
2019-05-19T11:34:27.874Z,26.20
2019-05-19T11:36:54.973Z,26.34
2019-05-19T11:39:22.062Z,26.17
2019-05-19T11:41:49.183Z,25.83
2019-05-19T11:44:16.298Z,25.73
2019-05-19T11:46:45.437Z,25.94
2019-05-19T11:49:12.538Z,26.46
2019-05-19T11:51:39.660Z,26.92
2019-05-19T11:54:06.766Z,27.40
2019-05-19T11:56:36.217Z,27.87
2019-05-19T11:59:05.323Z,27.88
2019-05-19T12:01:32.452Z,27.89
2019-05-19T12:03:59.531Z,28.20
2019-05-19T12:06:38.825Z,28.43
2019-05-19T12:08:55.653Z,28.52
2019-05-19T12:11:22.751Z,28.67
2019-05-19T12:13:50.138Z,28.92
2019-05-19T12:16:17.198Z,29.31
2019-05-19T12:18:44.332Z,29.43
2019-05-19T12:21:11.391Z,29.82
2019-05-19T12:23:38.532Z,29.93
2019-05-19T12:26:05.654Z,30.20
2019-05-19T12:28:32.763Z,30.29
2019-05-19T12:31:00.753Z,30.39
2019-05-19T12:33:27.865Z,30.30
2019-05-19T12:35:54.909Z,28.80
2019-05-19T12:38:22.009Z,28.22
2019-05-19T12:40:49.116Z,28.67
2019-05-19T12:43:16.263Z,29.21
2019-05-19T12:45:43.398Z,29.42
2019-05-19T12:48:10.497Z,29.47
2019-05-19T12:50:37.641Z,29.93
2019-05-19T12:53:04.756Z,30.11
2019-05-19T12:55:31.853Z,30.00
2019-05-19T12:57:59.027Z,30.33
2019-05-19T13:00:26.094Z,30.64
2019-05-19T13:02:53.286Z,30.00
2019-05-19T13:05:20.316Z,29.04
2019-05-19T13:07:47.418Z,28.94
2019-05-19T13:10:14.562Z,28.83
2019-05-19T13:12:41.714Z,29.35
2019-05-19T13:15:09.103Z,28.40
2019-05-19T13:17:36.201Z,28.80
2019-05-19T13:20:03.648Z,29.20
2019-05-19T13:22:30.721Z,29.90
2019-05-19T13:24:57.832Z,30.27
2019-05-19T13:27:24.940Z,30.61
2019-05-19T13:29:52.017Z,30.91
2019-05-19T13:32:19.143Z,31.38
2019-05-19T13:34:46.247Z,31.51
2019-05-19T13:37:15.382Z,31.48
2019-05-19T13:39:42.483Z,31.50
2019-05-19T13:42:09.606Z,31.57
2019-05-19T13:44:36.709Z,31.61
2019-05-19T13:47:03.826Z,32.04
2019-05-19T13:49:30.919Z,32.52
2019-05-19T13:51:58.031Z,33.00
2019-05-19T13:54:25.112Z,33.15
2019-05-19T13:56:52.190Z,33.34
2019-05-19T13:59:19.264Z,33.01
2019-05-19T14:01:46.365Z,32.63
2019-05-19T14:04:13.900Z,31.31
2019-05-19T14:06:41.010Z,30.24
2019-05-19T14:09:08.080Z,30.29
2019-05-19T14:11:35.144Z,31.09
2019-05-19T14:14:02.239Z,31.78
2019-05-19T14:16:29.324Z,32.30
2019-05-19T14:18:56.426Z,31.98
2019-05-19T14:21:24.296Z,32.41
2019-05-19T14:23:51.374Z,32.41
2019-05-19T14:26:18.477Z,32.60
2019-05-19T14:28:45.575Z,32.77
2019-05-19T14:31:12.669Z,32.85
2019-05-19T14:33:39.762Z,32.86
2019-05-19T14:36:06.838Z,33.03
2019-05-19T14:38:33.980Z,33.12
2019-05-19T14:41:01.037Z,33.12
2019-05-19T14:43:28.672Z,32.87
2019-05-19T14:45:55.793Z,33.02
2019-05-19T14:48:22.875Z,32.88
2019-05-19T14:50:49.983Z,32.60
2019-05-19T14:53:17.062Z,32.13
2019-05-19T14:55:44.200Z,31.94
2019-05-19T14:58:11.326Z,32.12
2019-05-19T15:00:38.408Z,31.19
2019-05-19T15:03:05.478Z,29.95
2019-05-19T15:05:32.599Z,28.94
2019-05-19T15:07:59.726Z,28.15
2019-05-19T15:10:26.813Z,27.29
2019-05-19T15:12:53.914Z,27.32
2019-05-19T15:15:21.000Z,27.76
2019-05-19T15:17:48.149Z,27.81
2019-05-19T15:20:36.505Z,28.15
2019-05-19T15:23:03.657Z,28.39
2019-05-19T15:25:30.734Z,28.81
2019-05-19T15:28:01.474Z,29.07
2019-05-19T15:30:33.457Z,29.12
2019-05-19T15:33:00.581Z,29.09
2019-05-19T15:35:27.678Z,29.38
2019-05-19T15:37:54.772Z,29.46
2019-05-19T15:40:21.852Z,29.68
2019-05-19T15:42:48.915Z,29.59
2019-05-19T15:45:16.049Z,29.53
2019-05-19T15:47:43.159Z,29.54
2019-05-19T15:50:10.356Z,29.03
2019-05-19T15:52:37.486Z,28.55
2019-05-19T15:55:07.721Z,28.01
2019-05-19T15:57:34.822Z,27.80
2019-05-19T16:00:02.876Z,27.80
2019-05-19T16:02:37.457Z,27.85
2019-05-19T16:05:04.564Z,27.89
2019-05-19T16:07:31.735Z,27.98
2019-05-19T16:09:58.835Z,27.79
2019-05-19T16:12:25.966Z,28.06
2019-05-19T16:14:53.504Z,27.90
2019-05-19T16:17:20.611Z,28.04
2019-05-19T16:19:47.712Z,28.10
2019-05-19T16:22:14.842Z,28.18
2019-05-19T16:24:41.903Z,28.15
2019-05-19T16:27:09.040Z,28.21
2019-05-19T16:29:36.115Z,28.23
2019-05-19T16:32:03.197Z,28.16
2019-05-19T16:34:30.288Z,28.26
2019-05-19T16:36:57.354Z,28.52
2019-05-19T16:39:24.490Z,28.51
2019-05-19T16:41:51.592Z,28.39
2019-05-19T16:44:18.692Z,28.13
2019-05-19T16:46:45.787Z,27.85
2019-05-19T16:49:12.860Z,27.40
2019-05-19T16:51:39.958Z,27.05
2019-05-19T16:57:04.910Z,26.19
2019-05-19T16:59:32.019Z,25.78
2019-05-19T17:01:59.103Z,25.31
2019-05-19T17:04:26.187Z,24.85
2019-05-19T17:06:53.572Z,24.54
2019-05-19T17:09:20.686Z,24.13
2019-05-19T17:11:47.785Z,23.81
2019-05-19T17:14:14.867Z,23.59
2019-05-19T17:16:41.993Z,23.38
2019-05-19T17:19:09.090Z,23.23
2019-05-19T17:21:36.158Z,23.09
2019-05-19T17:24:03.331Z,23.00
2019-05-19T17:26:30.451Z,22.91
2019-05-19T17:29:00.974Z,22.85
2019-05-19T17:31:36.286Z,22.74
2019-05-19T17:34:03.382Z,22.65
2019-05-19T17:36:30.465Z,22.55
2019-05-19T17:38:57.570Z,22.48
2019-05-19T17:41:24.669Z,22.38
2019-05-19T17:43:51.746Z,22.34
2019-05-19T17:46:18.853Z,22.27
2019-05-19T17:48:45.980Z,22.17
2019-05-19T17:51:13.867Z,22.05
2019-05-19T17:53:41.373Z,21.97
2019-05-19T17:56:08.453Z,21.89
2019-05-19T17:58:56.818Z,21.79
2019-05-19T18:01:23.906Z,21.68
2019-05-19T18:03:51.138Z,21.53
2019-05-19T18:06:18.216Z,21.44
2019-05-19T18:08:45.325Z,21.40
2019-05-19T18:11:12.428Z,21.36
2019-05-19T18:13:39.504Z,21.25
2019-05-19T18:16:06.582Z,21.08
2019-05-19T18:18:33.720Z,20.95
2019-05-19T18:21:00.832Z,20.72
2019-05-19T18:23:27.936Z,20.53
2019-05-19T18:25:54.983Z,20.43
2019-05-19T18:28:22.098Z,20.32
2019-05-19T18:30:49.162Z,20.22
2019-05-19T18:33:16.263Z,20.18
2019-05-19T18:35:43.380Z,20.13
2019-05-19T18:38:10.464Z,20.03
2019-05-19T18:40:37.548Z,19.92
2019-05-19T18:43:04.632Z,19.83
2019-05-19T18:45:31.703Z,19.69
2019-05-19T18:47:58.804Z,19.51
2019-05-19T18:50:25.858Z,19.30
2019-05-19T18:52:52.991Z,19.05
2019-05-19T18:55:19.992Z,18.75
2019-05-19T18:57:47.124Z,18.46
2019-05-19T19:00:20.304Z,18.23
2019-05-19T19:02:48.031Z,17.96
2019-05-19T19:05:15.175Z,17.80
2019-05-19T19:08:01.886Z,17.67
2019-05-19T19:10:28.978Z,17.56
2019-05-19T19:12:56.051Z,17.42
2019-05-19T19:15:23.137Z,17.31
2019-05-19T19:17:50.252Z,17.28
2019-05-19T19:20:17.334Z,17.24
2019-05-19T19:22:44.446Z,17.19
2019-05-19T19:25:12.120Z,17.12
2019-05-19T19:27:39.319Z,17.03
2019-05-19T19:30:06.441Z,16.99
2019-05-19T19:32:33.538Z,16.89
2019-05-19T19:35:00.610Z,16.82
2019-05-19T19:37:27.718Z,16.74
2019-05-19T19:39:55.063Z,16.65
2019-05-19T19:42:22.152Z,16.58
2019-05-19T19:44:49.205Z,16.50
2019-05-19T19:47:16.284Z,16.49
2019-05-19T19:49:46.132Z,16.47
2019-05-19T19:52:34.624Z,16.48
2019-05-19T19:55:01.731Z,16.43
2019-05-19T19:57:28.816Z,16.43
2019-05-19T19:59:55.893Z,16.42
2019-05-19T20:02:23.331Z,16.42
2019-05-19T20:04:50.426Z,16.41
2019-05-19T20:07:17.518Z,16.37
2019-05-19T20:09:44.623Z,16.33
2019-05-19T20:12:11.720Z,16.22
2019-05-19T20:14:38.827Z,16.14
2019-05-19T20:17:05.936Z,16.10
2019-05-19T20:19:33.257Z,16.06
2019-05-19T20:22:00.410Z,16.02
2019-05-19T20:24:27.496Z,15.99
2019-05-19T20:26:54.586Z,15.95
2019-05-19T20:29:21.676Z,15.91
2019-05-19T20:31:48.777Z,15.88
2019-05-19T20:34:15.893Z,15.89
2019-05-19T20:36:43.267Z,15.87
2019-05-19T20:39:10.393Z,15.83
2019-05-19T20:41:37.440Z,15.80
2019-05-19T20:44:04.547Z,15.74
2019-05-19T20:46:31.628Z,15.68
2019-05-19T20:48:58.718Z,15.69
2019-05-19T20:51:25.807Z,15.65
2019-05-19T20:53:53.474Z,15.62
2019-05-19T20:56:28.373Z,15.63
2019-05-19T20:58:55.464Z,15.67
2019-05-19T21:01:22.548Z,15.66
2019-05-19T21:03:49.678Z,15.64
2019-05-19T21:06:16.746Z,15.60
2019-05-19T21:11:45.202Z,15.43
2019-05-19T21:14:12.294Z,15.35
2019-05-19T21:16:46.110Z,15.27
2019-05-19T21:19:13.197Z,15.16
2019-05-19T21:21:40.306Z,15.09
2019-05-19T21:24:07.392Z,15.05
2019-05-19T21:26:34.460Z,15.03
2019-05-19T21:29:01.541Z,15.05
2019-05-19T21:31:28.673Z,14.96
2019-05-19T21:33:55.782Z,14.97
2019-05-19T21:36:22.874Z,14.90
2019-05-19T21:38:49.986Z,14.87
2019-05-19T21:41:17.051Z,14.86
2019-05-19T21:43:45.203Z,14.78
2019-05-19T21:46:31.748Z,14.80
2019-05-19T21:48:58.855Z,14.80
2019-05-19T21:51:25.941Z,14.70
2019-05-19T21:53:53.089Z,14.55
2019-05-19T21:56:20.167Z,14.55
2019-05-19T21:58:47.250Z,14.54
2019-05-19T22:01:22.748Z,14.57
2019-05-19T22:03:43.433Z,14.58
2019-05-19T22:06:10.507Z,14.60
2019-05-19T22:08:37.612Z,14.59
2019-05-19T22:11:04.839Z,14.47
2019-05-19T22:13:31.951Z,14.47
2019-05-19T22:16:12.141Z,14.58
2019-05-19T22:18:28.122Z,14.65
2019-05-19T22:20:55.257Z,14.58
2019-05-19T22:23:22.323Z,14.64
2019-05-19T22:25:49.400Z,14.64
2019-05-19T22:28:16.494Z,14.62
2019-05-19T22:30:43.609Z,14.59
2019-05-19T22:33:10.719Z,14.60
2019-05-19T22:35:37.930Z,14.69
2019-05-19T22:38:05.012Z,14.69
2019-05-19T22:40:32.101Z,14.69
2019-05-19T22:42:59.183Z,14.78
2019-05-19T22:45:26.310Z,14.65
2019-05-19T22:47:53.392Z,14.65
2019-05-19T22:50:20.464Z,14.63
2019-05-19T22:52:47.555Z,14.65
2019-05-19T22:55:16.261Z,14.65
2019-05-19T22:57:43.362Z,14.65
2019-05-19T23:00:11.978Z,14.64
2019-05-19T23:02:39.346Z,14.47
2019-05-19T23:05:06.763Z,14.46
2019-05-19T23:07:35.876Z,14.44
2019-05-19T23:10:03.485Z,14.41
2019-05-19T23:12:30.590Z,14.41
2019-05-19T23:14:57.690Z,14.52
2019-05-19T23:17:24.769Z,14.51
2019-05-19T23:19:51.818Z,14.43
2019-05-19T23:22:19.686Z,14.43
2019-05-19T23:24:46.755Z,14.39
2019-05-19T23:27:14.101Z,14.53
2019-05-19T23:29:41.200Z,14.58
2019-05-19T23:32:08.293Z,14.58
2019-05-19T23:34:35.381Z,14.63
2019-05-19T23:37:02.489Z,14.63
2019-05-19T23:39:29.574Z,14.60
2019-05-19T23:41:56.956Z,14.64
2019-05-19T23:44:24.071Z,14.60
2019-05-19T23:46:51.177Z,14.59
2019-05-19T23:49:18.271Z,14.61
2019-05-19T23:51:45.339Z,14.60
2019-05-19T23:54:12.490Z,14.57
2019-05-19T23:56:39.554Z,14.57
2019-05-19T23:59:06.653Z,14.57
